Time;durP1;ratioP1;P1;durP2;ratioP2;P2;SDS_P1;SDS_P2;PMS_P1;PMS_P2;Temp;Humidity;BMP_temperature;BMP_pressure;BME280_temperature;BME280_humidity;BME280_pressure;Samples;Min_cycle;Max_cycle;Signal;HPM_P1;HPM_P2
2022/08/23 00:01:21;;;;;;;58.78;10.38;;;;;;;;;;1769660;80;21507;-68
2022/08/23 00:03:50;;;;;;;76.37;9.45;;;;;;;;;;1776435;80;21507;-68
2022/08/23 00:06:17;;;;;;;74.12;9.55;;;;;;;;;;1768875;80;21063;-68
2022/08/23 00:08:45;;;;;;;73.70;9.58;;;;;;;;;;1759957;80;21007;-68
2022/08/23 00:11:30;;;;;;;73.55;9.78;;;;;;;;;;1766849;80;21547;-69
2022/08/23 00:13:59;;;;;;;62.98;8.45;;;;;;;;;;1769666;80;21491;-68
2022/08/23 00:16:28;;;;;;;74.17;9.35;;;;;;;;;;1763125;80;21043;-68
2022/08/23 00:18:55;;;;;;;73.70;9.78;;;;;;;;;;1755783;80;21031;-69
2022/08/23 00:21:22;;;;;;;72.90;9.23;;;;;;;;;;1764526;81;21028;-68
2022/08/23 00:23:49;;;;;;;65.28;9.58;;;;;;;;;;1776938;80;21039;-68
2022/08/23 00:26:19;;;;;;;60.40;8.68;;;;;;;;;;1767093;80;20995;-69
2022/08/23 00:28:48;;;;;;;64.62;9.28;;;;;;;;;;1762947;80;21081;-68
2022/08/23 00:31:17;;;;;;;66.28;9.33;;;;;;;;;;1763494;80;21534;-69
2022/08/23 00:33:45;;;;;;;63.98;9.35;;;;;;;;;;1764593;80;21038;-69
2022/08/23 00:36:12;;;;;;;71.62;9.95;;;;;;;;;;1760798;80;21049;-69
2022/08/23 00:38:38;;;;;;;75.45;9.83;;;;;;;;;;1753443;80;21094;-67
2022/08/23 00:41:06;;;;;;;62.80;9.80;;;;;;;;;;1739740;81;21114;-68
2022/08/23 00:49:33;;;;;;;69.75;9.75;;;;;;;;;;1734668;82;21125;-68
2022/08/23 00:52:12;;;;;;;75.52;10.45;;;;;;;;;;1737826;82;21052;-69
2022/08/23 00:54:40;;;;;;;69.45;9.58;;;;;;;;;;1756135;81;21095;-68
2022/08/23 00:57:10;;;;;;;61.85;9.65;;;;;;;;;;1768231;80;21064;-69
2022/08/23 00:59:37;;;;;;;70.05;9.55;;;;;;;;;;1772809;80;21106;-68
2022/08/23 01:02:06;;;;;;;71.82;9.15;;;;;;;;;;1771728;80;21550;-68
2022/08/23 01:04:38;;;;;;;68.87;10.63;;;;;;;;;;1775298;80;21076;-68
2022/08/23 01:07:29;;;;;;;66.05;9.30;;;;;;;;;;1767413;80;21031;-68
2022/08/23 01:09:59;;;;;;;68.37;9.40;;;;;;;;;;1752452;80;21038;-68
2022/08/23 01:12:30;;;;;;;70.78;9.95;;;;;;;;;;1771481;80;21040;-68
2022/08/23 01:15:17;;;;;;;64.50;9.20;;;;;;;;;;1768065;80;21563;-68
2022/08/23 01:17:52;;;;;;;71.47;9.50;;;;;;;;;;1770582;80;21039;-68
2022/08/23 01:20:22;;;;;;;74.75;9.28;;;;;;;;;;1760823;80;21570;-68
2022/08/23 01:22:59;;;;;;;76.90;9.73;;;;;;;;;;1770212;80;21199;-68
2022/08/23 01:25:28;;;;;;;60.88;9.03;;;;;;;;;;1764193;80;21563;-68
2022/08/23 01:27:56;;;;;;;61.37;8.18;;;;;;;;;;1758407;80;21034;-68
2022/08/23 01:30:26;;;;;;;67.95;9.30;;;;;;;;;;1757720;80;21035;-68
2022/08/23 01:32:59;;;;;;;61.75;8.78;;;;;;;;;;1757199;80;21090;-68
2022/08/23 01:35:38;;;;;;;66.72;9.18;;;;;;;;;;1766426;80;21081;-68
2022/08/23 01:38:06;;;;;;;81.45;9.43;;;;;;;;;;1770727;81;21047;-68
2022/08/23 01:40:35;;;;;;;67.47;9.50;;;;;;;;;;1772354;80;21015;-68
2022/08/23 01:43:04;;;;;;;74.90;9.35;;;;;;;;;;1765216;80;21527;-68
2022/08/23 01:45:32;;;;;;;66.87;9.20;;;;;;;;;;1765838;80;21499;-69
2022/08/23 01:47:59;;;;;;;56.33;8.48;;;;;;;;;;1779656;80;21040;-68
2022/08/23 01:50:27;;;;;;;69.82;9.95;;;;;;;;;;1763454;80;21018;-68
2022/08/23 01:52:54;;;;;;;57.15;8.70;;;;;;;;;;1750060;80;21078;-68
2022/08/23 01:55:23;;;;;;;60.60;9.43;;;;;;;;;;1771782;80;21539;-68
2022/08/23 01:57:53;;;;;;;65.40;9.28;;;;;;;;;;1768024;80;21598;-68
2022/08/23 02:00:23;;;;;;;65.40;8.73;;;;;;;;;;1773393;80;21043;-68
2022/08/23 02:02:50;;;;;;;62.43;8.53;;;;;;;;;;1766652;80;21121;-68
2022/08/23 02:05:17;;;;;;;54.48;8.68;;;;;;;;;;1766281;80;21113;-68
2022/08/23 02:07:46;;;;;;;52.53;8.60;;;;;;;;;;1771549;80;21502;-68
2022/08/23 02:10:14;;;;;;;49.13;7.95;;;;;;;;;;1770507;80;21079;-68
2022/08/23 02:12:41;;;;;;;65.25;9.05;;;;;;;;;;1769957;80;21067;-68
2022/08/23 02:15:10;;;;;;;63.28;8.38;;;;;;;;;;1763889;80;21529;-68
2022/08/23 02:17:39;;;;;;;46.25;8.53;;;;;;;;;;1759255;80;20995;-68
2022/08/23 02:20:07;;;;;;;54.15;8.10;;;;;;;;;;1766349;80;21461;-68
2022/08/23 02:22:34;;;;;;;56.23;8.48;;;;;;;;;;1754182;80;21022;-68
2022/08/23 02:25:01;;;;;;;62.85;11.85;;;;;;;;;;1764016;80;21553;-67
2022/08/23 02:27:28;;;;;;;74.37;12.65;;;;;;;;;;1761712;80;21047;-68
2022/08/23 02:29:55;;;;;;;46.13;8.48;;;;;;;;;;1773108;80;21544;-68
2022/08/23 02:32:22;;;;;;;51.23;8.75;;;;;;;;;;1768181;80;21039;-68
2022/08/23 02:34:48;;;;;;;42.95;7.60;;;;;;;;;;1768383;80;21010;-67
2022/08/23 02:37:16;;;;;;;61.60;8.58;;;;;;;;;;1750505;81;21058;-68
2022/08/23 02:39:43;;;;;;;51.20;8.05;;;;;;;;;;1765667;80;21039;-67
2022/08/23 02:42:11;;;;;;;56.85;7.75;;;;;;;;;;1772129;80;21475;-68
2022/08/23 02:44:38;;;;;;;46.42;7.50;;;;;;;;;;1771784;80;21094;-68
2022/08/23 02:47:07;;;;;;;53.63;8.30;;;;;;;;;;1764210;80;21082;-67
2022/08/23 02:49:35;;;;;;;45.52;8.00;;;;;;;;;;1770756;80;21012;-68
2022/08/23 02:52:05;;;;;;;49.25;7.70;;;;;;;;;;1770082;80;21020;-67
2022/08/23 02:54:33;;;;;;;49.38;8.20;;;;;;;;;;1758784;80;21164;-67
2022/08/23 02:56:59;;;;;;;45.85;7.40;;;;;;;;;;1751774;80;21100;-67
2022/08/23 02:59:26;;;;;;;57.08;8.10;;;;;;;;;;1762474;81;21066;-67
2022/08/23 03:01:53;;;;;;;44.18;7.33;;;;;;;;;;1770944;80;21519;-67
2022/08/23 03:04:22;;;;;;;44.00;7.30;;;;;;;;;;1767297;80;21031;-67
2022/08/23 03:06:49;;;;;;;49.95;7.33;;;;;;;;;;1753699;80;21026;-67
2022/08/23 03:09:16;;;;;;;48.52;7.05;;;;;;;;;;1771210;80;21046;-67
2022/08/23 03:11:45;;;;;;;47.67;7.22;;;;;;;;;;1754849;80;21002;-67
2022/08/23 03:14:12;;;;;;;43.13;6.92;;;;;;;;;;1764695;80;21170;-67
2022/08/23 03:16:40;;;;;;;45.63;6.95;;;;;;;;;;1769937;80;21089;-67
2022/08/23 03:19:08;;;;;;;36.23;6.67;;;;;;;;;;1773261;81;21047;-67
2022/08/23 03:21:35;;;;;;;35.80;6.60;;;;;;;;;;1768520;80;21035;-67
2022/08/23 03:24:02;;;;;;;37.60;7.40;;;;;;;;;;1770422;80;21047;-67
2022/08/23 03:26:29;;;;;;;49.48;7.22;;;;;;;;;;1766570;80;21522;-67
2022/08/23 03:28:56;;;;;;;42.23;7.28;;;;;;;;;;1765648;80;21541;-67
2022/08/23 03:31:25;;;;;;;42.00;7.42;;;;;;;;;;1762666;80;20996;-67
2022/08/23 03:33:53;;;;;;;42.10;7.87;;;;;;;;;;1760208;80;21038;-67
2022/08/23 03:36:21;;;;;;;33.80;7.90;;;;;;;;;;1765583;80;21085;-67
2022/08/23 03:38:48;;;;;;;32.58;7.85;;;;;;;;;;1766328;80;21063;-66
2022/08/23 03:41:16;;;;;;;49.95;8.63;;;;;;;;;;1754504;81;21061;-67
2022/08/23 03:43:43;;;;;;;47.80;9.18;;;;;;;;;;1768582;80;21526;-67
2022/08/23 03:46:21;;;;;;;53.00;9.23;;;;;;;;;;1774274;80;21486;-66
2022/08/23 03:48:41;;;;;;;48.30;9.18;;;;;;;;;;1753057;80;21522;-67
2022/08/23 03:51:09;;;;;;;35.15;8.08;;;;;;;;;;1771024;80;21550;-66
2022/08/23 03:53:38;;;;;;;42.90;8.43;;;;;;;;;;1744822;80;21003;-67
2022/08/23 03:56:05;;;;;;;41.10;8.05;;;;;;;;;;1760295;80;21525;-67
2022/08/23 03:58:32;;;;;;;42.08;8.03;;;;;;;;;;1763138;80;21000;-67
2022/08/23 04:01:00;;;;;;;41.98;7.25;;;;;;;;;;1769002;80;21036;-67
2022/08/23 04:03:29;;;;;;;31.40;7.45;;;;;;;;;;1765179;80;21475;-67
2022/08/23 04:05:58;;;;;;;44.53;7.50;;;;;;;;;;1777253;80;21070;-67
2022/08/23 04:08:25;;;;;;;39.05;7.75;;;;;;;;;;1776607;80;21024;-67
2022/08/23 04:10:53;;;;;;;39.33;7.22;;;;;;;;;;1763911;80;21596;-67
2022/08/23 04:13:20;;;;;;;37.63;7.37;;;;;;;;;;1773019;80;21008;-67
2022/08/23 04:15:48;;;;;;;37.53;6.90;;;;;;;;;;1767905;80;21055;-66
2022/08/23 04:18:16;;;;;;;26.70;6.33;;;;;;;;;;1757134;80;21593;-67
2022/08/23 04:20:44;;;;;;;36.15;7.25;;;;;;;;;;1765643;80;21051;-67
2022/08/23 04:23:13;;;;;;;33.42;6.62;;;;;;;;;;1769431;80;21025;-67
2022/08/23 04:25:44;;;;;;;42.33;6.75;;;;;;;;;;1771995;80;21043;-67
2022/08/23 04:28:11;;;;;;;31.05;6.40;;;;;;;;;;1763220;80;21067;-67
2022/08/23 04:30:40;;;;;;;29.85;6.47;;;;;;;;;;1768548;80;21000;-67
2022/08/23 04:33:07;;;;;;;31.05;5.95;;;;;;;;;;1768587;80;21502;-67
2022/08/23 04:35:34;;;;;;;33.18;6.00;;;;;;;;;;1766109;80;21039;-67
2022/08/23 04:38:01;;;;;;;28.92;6.60;;;;;;;;;;1767909;80;21031;-67
2022/08/23 04:43:15;;;;;;;29.35;5.78;;;;;;;;;;1758215;80;21027;-67
2022/08/23 04:45:42;;;;;;;27.48;5.72;;;;;;;;;;1745719;80;21640;-67
2022/08/23 04:48:11;;;;;;;26.60;5.55;;;;;;;;;;1771985;80;21023;-67
2022/08/23 04:50:40;;;;;;;32.28;5.65;;;;;;;;;;1767042;80;21593;-68
2022/08/23 04:53:08;;;;;;;25.50;6.35;;;;;;;;;;1753455;80;21032;-67
2022/08/23 04:55:38;;;;;;;23.55;5.28;;;;;;;;;;1763824;80;21065;-66
2022/08/23 04:58:06;;;;;;;20.68;6.12;;;;;;;;;;1760116;80;21040;-68
2022/08/23 05:00:35;;;;;;;26.77;5.78;;;;;;;;;;1772599;80;21004;-67
2022/08/23 05:03:01;;;;;;;22.00;5.70;;;;;;;;;;1757813;80;21540;-67
2022/08/23 05:05:28;;;;;;;25.30;5.85;;;;;;;;;;1779941;80;21566;-68
2022/08/23 05:07:55;;;;;;;25.72;5.33;;;;;;;;;;1773165;80;20992;-67
2022/08/23 05:10:22;;;;;;;23.60;5.37;;;;;;;;;;1768304;80;21535;-68
2022/08/23 05:12:50;;;;;;;24.55;5.67;;;;;;;;;;1760427;80;21039;-67
2022/08/23 05:15:18;;;;;;;30.97;5.70;;;;;;;;;;1761893;80;21538;-67
2022/08/23 05:17:47;;;;;;;24.85;5.55;;;;;;;;;;1764765;80;21526;-67
2022/08/23 05:20:15;;;;;;;22.02;5.08;;;;;;;;;;1753354;80;21006;-67
2022/08/23 05:22:44;;;;;;;20.82;5.35;;;;;;;;;;1768658;80;21429;-67
2022/08/23 05:25:15;;;;;;;29.35;5.42;;;;;;;;;;1765887;80;21039;-67
2022/08/23 05:27:42;;;;;;;19.35;5.05;;;;;;;;;;1772122;80;21035;-68
2022/08/23 05:30:10;;;;;;;29.10;5.15;;;;;;;;;;1752854;80;21510;-67
2022/08/23 05:32:39;;;;;;;26.23;5.87;;;;;;;;;;1772466;80;21047;-67
2022/08/23 05:35:07;;;;;;;25.88;5.53;;;;;;;;;;1770772;80;21039;-67
2022/08/23 05:37:35;;;;;;;29.55;5.15;;;;;;;;;;1767165;80;21031;-68
2022/08/23 05:40:03;;;;;;;26.80;5.00;;;;;;;;;;1767535;80;21066;-67
2022/08/23 05:42:32;;;;;;;19.82;5.10;;;;;;;;;;1760045;80;20991;-68
2022/08/23 05:44:59;;;;;;;24.85;5.35;;;;;;;;;;1766972;79;21020;-67
2022/08/23 05:47:26;;;;;;;23.75;5.17;;;;;;;;;;1763067;79;21085;-68
2022/08/23 05:50:01;;;;;;;19.15;5.08;;;;;;;;;;1747175;79;20999;-68
2022/08/23 05:52:30;;;;;;;26.15;5.00;;;;;;;;;;1748578;79;20995;-67
2022/08/23 05:54:57;;;;;;;20.37;4.70;;;;;;;;;;1767730;79;21078;-67
2022/08/23 05:57:29;;;;;;;26.20;5.60;;;;;;;;;;1775445;79;21038;-67
2022/08/23 05:59:55;;;;;;;32.10;5.33;;;;;;;;;;1791024;79;21052;-68
2022/08/23 06:02:23;;;;;;;29.25;5.45;;;;;;;;;;1780224;79;21547;-67
2022/08/23 06:04:50;;;;;;;27.32;4.80;;;;;;;;;;1781825;79;21028;-67
2022/08/23 06:07:18;;;;;;;25.12;5.60;;;;;;;;;;1778824;79;21559;-68
2022/08/23 06:09:45;;;;;;;22.82;4.78;;;;;;;;;;1752783;79;21043;-67
2022/08/23 06:12:12;;;;;;;20.72;5.10;;;;;;;;;;1773114;79;21031;-67
2022/08/23 06:14:40;;;;;;;17.48;4.65;;;;;;;;;;1743755;81;21005;-67
2022/08/23 06:17:07;;;;;;;19.17;4.60;;;;;;;;;;1700877;82;21025;-67
2022/08/23 06:19:36;;;;;;;23.32;4.75;;;;;;;;;;1758843;79;21012;-68
2022/08/23 06:22:17;;;;;;;27.40;4.85;;;;;;;;;;1743199;79;21515;-68
2022/08/23 06:24:44;;;;;;;24.18;5.40;;;;;;;;;;1783854;79;21025;-67
2022/08/23 06:27:17;;;;;;;18.53;5.00;;;;;;;;;;1780024;79;21053;-68
2022/08/23 06:29:47;;;;;;;16.02;4.40;;;;;;;;;;1743572;80;21036;-67
2022/08/23 06:32:34;;;;;;;19.95;4.65;;;;;;;;;;1778130;79;21064;-68
2022/08/23 06:35:19;;;;;;;20.45;4.87;;;;;;;;;;1775068;79;20993;-67
2022/08/23 06:37:58;;;;;;;19.52;4.42;;;;;;;;;;1768316;79;21046;-68
2022/08/23 06:40:44;;;;;;;16.45;4.55;;;;;;;;;;1643113;85;21015;-68
2022/08/23 06:43:29;;;;;;;21.90;4.70;;;;;;;;;;1655204;85;21089;-68
2022/08/23 06:46:15;;;;;;;22.65;4.50;;;;;;;;;;1705353;80;21026;-68
2022/08/23 06:48:44;;;;;;;17.80;4.65;;;;;;;;;;1761331;80;21028;-68
2022/08/23 06:51:15;;;;;;;18.07;4.83;;;;;;;;;;1754041;80;21549;-68
2022/08/23 06:53:57;;;;;;;;;;;;;;;;;;1760268;80;21037;-68
2022/08/23 06:56:35;;;;;;;16.85;4.47;;;;;;;;;;1737942;81;20183;-68
2022/08/23 06:59:08;;;;;;;20.40;4.87;;;;;;;;;;1765797;80;21221;-68
2022/08/23 07:09:27;;;;;;;16.20;4.12;;;;;;;;;;1776816;80;21035;-67
2022/08/23 07:11:55;;;;;;;21.68;4.90;;;;;;;;;;1769783;80;21538;-68
2022/08/23 07:14:23;;;;;;;20.37;4.70;;;;;;;;;;1757458;81;21529;-67
2022/08/23 07:16:52;;;;;;;18.12;4.60;;;;;;;;;;1766425;80;21506;-68
2022/08/23 07:19:22;;;;;;;14.85;4.75;;;;;;;;;;1767423;80;21041;-67
2022/08/23 07:21:48;;;;;;;20.85;4.78;;;;;;;;;;1747952;80;21043;-68
2022/08/23 07:24:17;;;;;;;19.10;4.50;;;;;;;;;;1733328;81;21504;-68
2022/08/23 07:26:45;;;;;;;13.10;4.42;;;;;;;;;;1747475;80;21101;-68
2022/08/23 07:29:14;;;;;;;16.80;4.78;;;;;;;;;;1759911;80;21056;-68
2022/08/23 07:31:44;;;;;;;28.40;4.75;;;;;;;;;;1761779;80;21529;-68
2022/08/23 07:34:13;;;;;;;18.32;4.70;;;;;;;;;;1747932;80;21164;-68
2022/08/23 07:36:43;;;;;;;16.37;4.65;;;;;;;;;;1744206;81;21499;-67
2022/08/23 07:39:11;;;;;;;12.53;4.30;;;;;;;;;;1743867;81;21056;-68
2022/08/23 07:41:38;;;;;;;19.50;4.35;;;;;;;;;;1732271;81;21065;-68
2022/08/23 07:44:08;;;;;;;14.83;4.08;;;;;;;;;;1745963;81;21516;-68
2022/08/23 07:46:39;;;;;;;16.97;4.40;;;;;;;;;;1751884;80;21570;-68
2022/08/23 07:49:06;;;;;;;19.12;4.47;;;;;;;;;;1744987;80;21013;-69
2022/08/23 07:51:40;;;;;;;13.78;4.20;;;;;;;;;;1746014;80;21527;-69
2022/08/23 07:54:09;;;;;;;29.15;4.87;;;;;;;;;;1750557;79;21023;-68
2022/08/23 07:56:38;;;;;;;14.55;4.15;;;;;;;;;;1748926;80;21097;-69
2022/08/23 07:59:07;;;;;;;20.30;4.12;;;;;;;;;;1740814;80;21538;-68
2022/08/23 08:01:37;;;;;;;20.48;4.50;;;;;;;;;;1731728;81;20998;-68
2022/08/23 08:04:05;;;;;;;29.77;4.30;;;;;;;;;;1731555;81;21100;-68
2022/08/23 08:06:40;;;;;;;18.80;3.87;;;;;;;;;;1721366;83;21029;-68
2022/08/23 08:09:08;;;;;;;18.77;5.03;;;;;;;;;;1717498;82;21037;-68
2022/08/23 08:11:37;;;;;;;15.45;4.10;;;;;;;;;;1718050;81;21032;-67
2022/08/23 08:14:06;;;;;;;14.45;5.15;;;;;;;;;;1706784;81;21081;-67
2022/08/23 08:16:37;;;;;;;25.27;4.95;;;;;;;;;;1715825;81;20975;-68
2022/08/23 08:19:07;;;;;;;19.42;4.03;;;;;;;;;;1733499;81;21020;-68
2022/08/23 08:21:53;;;;;;;22.77;3.83;;;;;;;;;;1735334;81;21107;-67
2022/08/23 08:24:39;;;;;;;23.40;4.15;;;;;;;;;;1741104;81;21036;-67
2022/08/23 08:27:07;;;;;;;17.77;3.50;;;;;;;;;;1725337;81;21029;-67
2022/08/23 08:29:34;;;;;;;16.87;4.10;;;;;;;;;;1723140;81;21083;-67
2022/08/23 08:32:02;;;;;;;13.00;3.52;;;;;;;;;;1748288;81;21086;-68
2022/08/23 08:34:30;;;;;;;10.72;3.65;;;;;;;;;;1733957;81;21073;-67
2022/08/23 08:36:57;;;;;;;16.17;3.70;;;;;;;;;;1751333;82;21082;-68
2022/08/23 08:39:28;;;;;;;24.12;4.12;;;;;;;;;;1725112;82;20980;-68
2022/08/23 08:42:06;;;;;;;21.12;4.40;;;;;;;;;;1746883;82;21054;-68
2022/08/23 08:44:44;;;;;;;24.65;4.62;;;;;;;;;;1718963;82;21087;-67
2022/08/23 08:47:15;;;;;;;13.95;3.50;;;;;;;;;;1722683;82;21515;-68
2022/08/23 08:50:04;;;;;;;20.43;4.12;;;;;;;;;;1712499;82;21543;-67
2022/08/23 08:52:47;;;;;;;17.20;3.60;;;;;;;;;;1717907;82;21031;-67
2022/08/23 08:55:22;;;;;;;14.45;3.50;;;;;;;;;;1714105;83;21515;-67
2022/08/23 08:57:50;;;;;;;16.67;4.75;;;;;;;;;;1714310;82;21070;-68
2022/08/23 09:00:20;;;;;;;14.70;4.00;;;;;;;;;;1725540;81;21023;-68
2022/08/23 09:02:47;;;;;;;12.98;3.37;;;;;;;;;;1727120;82;21088;-67
2022/08/23 09:05:17;;;;;;;15.68;3.40;;;;;;;;;;1738697;82;21126;-67
2022/08/23 09:08:21;;;;;;;16.70;4.37;;;;;;;;;;1726569;82;21236;-67
2022/08/23 09:10:58;;;;;;;9.48;3.60;;;;;;;;;;1716121;82;21515;-68
2022/08/23 09:13:43;;;;;;;10.08;3.77;;;;;;;;;;1717548;82;21087;-67
2022/08/23 09:16:30;;;;;;;12.75;3.67;;;;;;;;;;1688812;82;21058;-67
2022/08/23 09:19:00;;;;;;;10.13;3.90;;;;;;;;;;1717451;82;21113;-67
2022/08/23 09:21:30;;;;;;;11.33;4.10;;;;;;;;;;1711818;83;21003;-67
2022/08/23 09:23:59;;;;;;;16.32;4.22;;;;;;;;;;1713873;82;21012;-67
2022/08/23 09:26:29;;;;;;;12.43;4.03;;;;;;;;;;1716508;82;21012;-67
2022/08/23 09:29:05;;;;;;;15.20;3.80;;;;;;;;;;1731770;81;21685;-69
2022/08/23 09:31:40;;;;;;;16.32;4.03;;;;;;;;;;1742058;81;21073;-67
2022/08/23 09:34:07;;;;;;;8.75;3.95;;;;;;;;;;1736599;81;21026;-67
2022/08/23 09:36:39;;;;;;;14.43;3.75;;;;;;;;;;1738888;81;20991;-67
2022/08/23 09:39:08;;;;;;;11.85;3.90;;;;;;;;;;1733468;81;21087;-67
2022/08/23 09:41:42;;;;;;;11.60;4.10;;;;;;;;;;1739942;81;21015;-66
2022/08/23 09:44:12;;;;;;;12.13;3.83;;;;;;;;;;1740816;81;21011;-67
2022/08/23 09:46:41;;;;;;;11.53;4.05;;;;;;;;;;1725704;81;21486;-67
2022/08/23 09:49:27;;;;;;;14.60;4.15;;;;;;;;;;1743063;82;20996;-67
2022/08/23 09:52:16;;;;;;;12.50;4.78;;;;;;;;;;1745504;82;20978;-67
2022/08/23 09:54:43;;;;;;;13.32;4.30;;;;;;;;;;1731947;82;21472;-66
2022/08/23 09:57:12;;;;;;;14.80;4.20;;;;;;;;;;1717411;81;21011;-67
2022/08/23 09:59:43;;;;;;;16.42;4.97;;;;;;;;;;1740449;82;21511;-67
2022/08/23 10:02:24;;;;;;;13.55;4.17;;;;;;;;;;1739470;81;21038;-67
2022/08/23 10:05:03;;;;;;;19.35;4.85;;;;;;;;;;1745391;80;21068;-66
2022/08/23 10:07:38;;;;;;;19.62;4.95;;;;;;;;;;1706972;82;21464;-67
2022/08/23 10:10:25;;;;;;;12.47;4.55;;;;;;;;;;1721713;82;21227;-67
2022/08/23 10:12:55;;;;;;;13.83;4.62;;;;;;;;;;1734784;82;21012;-67
2022/08/23 10:15:26;;;;;;;13.58;4.10;;;;;;;;;;1743629;81;21541;-67
2022/08/23 10:18:17;;;;;;;14.23;4.08;;;;;;;;;;1726716;81;21051;-67
2022/08/23 10:20:48;;;;;;;15.88;4.70;;;;;;;;;;1734055;81;21094;-67
2022/08/23 10:23:24;;;;;;;10.55;4.15;;;;;;;;;;1741150;81;20992;-66
2022/08/23 10:25:57;;;;;;;9.55;4.30;;;;;;;;;;1732828;81;21518;-67
2022/08/23 10:31:25;;;;;;;14.15;4.33;;;;;;;;;;1729357;82;21511;-67
2022/08/23 10:33:56;;;;;;;;;;;;;;;;;;1746447;82;21046;-66
2022/08/23 10:36:26;;;;;;;14.18;4.20;;;;;;;;;;1740484;82;20087;-67
2022/08/23 10:38:57;;;;;;;12.68;4.00;;;;;;;;;;1740287;82;21038;-67
2022/08/23 10:41:53;;;;;;;10.93;3.90;;;;;;;;;;1742499;82;21082;-67
2022/08/23 10:44:36;;;;;;;11.73;3.90;;;;;;;;;;1719432;83;21085;-66
2022/08/23 10:47:33;;;;;;;13.75;3.85;;;;;;;;;;1718339;83;21046;-66
2022/08/23 10:50:06;;;;;;;15.75;4.55;;;;;;;;;;1732693;82;21556;-67
2022/08/23 10:53:04;;;;;;;10.00;4.15;;;;;;;;;;1742315;82;21077;-67
2022/08/23 10:56:01;;;;;;;12.75;4.08;;;;;;;;;;1739400;82;21520;-67
2022/08/23 10:58:16;;;;;;;8.45;4.00;;;;;;;;;;1741265;82;21557;-66
2022/08/23 11:00:43;;;;;;;8.93;3.90;;;;;;;;;;1738301;81;21050;-67
2022/08/23 11:03:20;;;;;;;13.25;4.00;;;;;;;;;;1722406;82;21173;-67
2022/08/23 11:06:24;;;;;;;11.10;3.90;;;;;;;;;;1690899;83;21528;-67
2022/08/23 11:09:19;;;;;;;10.82;4.00;;;;;;;;;;1703159;83;21583;-68
2022/08/23 11:12:05;;;;;;;13.08;3.75;;;;;;;;;;1684883;84;21056;-68
2022/08/23 11:14:46;;;;;;;12.28;4.10;;;;;;;;;;1700949;83;21610;-68
2022/08/23 11:17:32;;;;;;;11.95;3.80;;;;;;;;;;1699222;83;21048;-68
2022/08/23 11:20:03;;;;;;;20.43;4.80;;;;;;;;;;1682196;84;21044;-68
2022/08/23 11:22:33;;;;;;;13.75;3.98;;;;;;;;;;1714816;82;21138;-67
2022/08/23 11:25:04;;;;;;;13.35;4.17;;;;;;;;;;1740840;81;21539;-68
2022/08/23 11:27:36;;;;;;;9.48;4.40;;;;;;;;;;1738693;81;21091;-67
2022/08/23 11:30:35;;;;;;;14.63;4.00;;;;;;;;;;1749609;81;21063;-68
2022/08/23 11:33:24;;;;;;;11.40;4.10;;;;;;;;;;1737200;82;21112;-67
2022/08/23 11:35:55;;;;;;;14.47;4.37;;;;;;;;;;1729226;82;21032;-67
2022/08/23 11:38:50;;;;;;;13.43;4.15;;;;;;;;;;1736072;82;21039;-68
2022/08/23 11:41:35;;;;;;;13.25;4.00;;;;;;;;;;1703334;81;21511;-68
2022/08/23 11:44:05;;;;;;;10.15;3.83;;;;;;;;;;1728084;82;21000;-68
2022/08/23 11:46:35;;;;;;;12.82;4.58;;;;;;;;;;1733151;82;21072;-68
2022/08/23 11:49:30;;;;;;;8.33;4.03;;;;;;;;;;1736768;81;21067;-67
2022/08/23 11:52:21;;;;;;;12.00;4.17;;;;;;;;;;1691650;83;21067;-68
2022/08/23 11:55:12;;;;;;;14.30;4.67;;;;;;;;;;1695563;83;21067;-67
2022/08/23 11:57:48;;;;;;;11.48;3.77;;;;;;;;;;1681479;83;21071;-68
2022/08/23 12:00:22;;;;;;;6.42;3.77;;;;;;;;;;1697374;83;21038;-67
2022/08/23 12:03:06;;;;;;;13.98;4.28;;;;;;;;;;1722419;82;21067;-68
2022/08/23 12:05:41;;;;;;;12.80;3.90;;;;;;;;;;1738593;80;21122;-68
2022/08/23 12:08:11;;;;;;;10.85;4.20;;;;;;;;;;1713230;81;21054;-68
2022/08/23 12:10:45;;;;;;;9.65;4.22;;;;;;;;;;1740501;81;21674;-68
2022/08/23 12:13:22;;;;;;;12.28;4.10;;;;;;;;;;1687508;83;21083;-68
2022/08/23 12:16:09;;;;;;;10.48;4.10;;;;;;;;;;1678219;84;21101;-68
2022/08/23 12:18:52;;;;;;;11.90;4.50;;;;;;;;;;1703988;84;21537;-68
2022/08/23 12:21:25;;;;;;;9.33;3.83;;;;;;;;;;1706310;83;21031;-68
2022/08/23 12:23:53;;;;;;;;;;;;;;;;;;1737785;81;21059;-68
2022/08/23 12:26:39;;;;;;;10.72;4.28;;;;;;;;;;1713916;83;20442;-67
2022/08/23 12:29:31;;;;;;;9.63;4.00;;;;;;;;;;1700102;83;21032;-67
2022/08/23 12:32:04;;;;;;;12.20;4.72;;;;;;;;;;1729631;82;21583;-68
2022/08/23 12:34:47;;;;;;;10.63;4.35;;;;;;;;;;1729005;82;21017;-67
2022/08/23 12:37:39;;;;;;;10.77;4.33;;;;;;;;;;1729499;81;21472;-68
2022/08/23 12:40:15;;;;;;;6.85;4.22;;;;;;;;;;1725657;81;21410;-68
2022/08/23 12:42:42;;;;;;;9.45;4.17;;;;;;;;;;1730056;81;21047;-68
2022/08/23 12:45:19;;;;;;;11.12;4.60;;;;;;;;;;1732455;81;21548;-68
2022/08/23 12:47:58;;;;;;;13.62;4.78;;;;;;;;;;1711418;81;21057;-68
2022/08/23 12:50:38;;;;;;;12.43;4.65;;;;;;;;;;1727238;81;21056;-67
2022/08/23 12:53:08;;;;;;;11.33;5.05;;;;;;;;;;1706995;83;21055;-67
2022/08/23 12:55:48;;;;;;;9.33;4.40;;;;;;;;;;1717578;83;21558;-67
2022/08/23 12:58:18;;;;;;;16.97;4.83;;;;;;;;;;1703264;83;21111;-68
2022/08/23 13:00:53;;;;;;;13.98;4.62;;;;;;;;;;1701814;83;21091;-67
2022/08/23 13:03:35;;;;;;;9.03;4.80;;;;;;;;;;1697349;83;21059;-68
2022/08/23 13:06:11;;;;;;;10.40;4.78;;;;;;;;;;1716772;83;21051;-68
2022/08/23 13:08:44;;;;;;;11.78;4.70;;;;;;;;;;1689829;83;21079;-67
2022/08/23 13:11:13;;;;;;;11.40;4.60;;;;;;;;;;1699196;83;21040;-67
2022/08/23 13:13:42;;;;;;;11.85;4.67;;;;;;;;;;1719131;83;21035;-68
2022/08/23 13:16:25;;;;;;;9.78;4.78;;;;;;;;;;1723835;83;21058;-68
2022/08/23 13:18:53;;;;;;;14.10;4.45;;;;;;;;;;1718706;83;21007;-67
2022/08/23 13:21:26;;;;;;;8.68;4.35;;;;;;;;;;1701309;83;22260;-68
2022/08/23 13:23:56;;;;;;;14.05;4.92;;;;;;;;;;1702426;83;21551;-68
2022/08/23 13:26:38;;;;;;;10.20;4.67;;;;;;;;;;1711194;83;21623;-68
2022/08/23 13:29:08;;;;;;;9.55;5.00;;;;;;;;;;1699508;83;21031;-66
2022/08/23 13:31:55;;;;;;;12.55;5.05;;;;;;;;;;1698570;83;21084;-66
2022/08/23 13:34:41;;;;;;;7.35;4.78;;;;;;;;;;1709577;83;21105;-66
2022/08/23 13:37:29;;;;;;;15.13;5.03;;;;;;;;;;1734293;82;21534;-66
2022/08/23 13:39:59;;;;;;;11.08;5.65;;;;;;;;;;1752522;81;21003;-66
2022/08/23 13:42:32;;;;;;;17.92;6.55;;;;;;;;;;1749340;81;21055;-67
2022/08/23 13:45:00;;;;;;;;;;;;;;;;;;1752758;81;21097;-67
2022/08/23 13:47:27;;;;;;;15.68;6.15;;;;;;;;;;1747158;82;20161;-66
2022/08/23 13:49:55;;;;;;;12.70;6.03;;;;;;;;;;1747467;81;21483;-66
2022/08/23 13:52:21;;;;;;;11.08;5.17;;;;;;;;;;1748919;81;21510;-67
2022/08/23 13:54:48;;;;;;;15.00;5.72;;;;;;;;;;1749078;82;21547;-67
2022/08/23 13:57:16;;;;;;;11.53;5.60;;;;;;;;;;1744044;81;21060;-66
2022/08/23 13:59:49;;;;;;;14.07;6.30;;;;;;;;;;1734403;82;21068;-67
2022/08/23 14:02:18;;;;;;;13.80;6.33;;;;;;;;;;1748181;82;21541;-66
2022/08/23 14:04:45;;;;;;;9.58;6.15;;;;;;;;;;1749245;81;21108;-66
2022/08/23 14:07:12;;;;;;;11.83;6.58;;;;;;;;;;1731275;81;21106;-67
2022/08/23 14:09:39;;;;;;;15.05;6.90;;;;;;;;;;1741060;82;21169;-67
2022/08/23 14:12:09;;;;;;;11.78;7.28;;;;;;;;;;1752268;81;21044;-67
2022/08/23 14:14:36;;;;;;;11.00;7.58;;;;;;;;;;1730324;81;21073;-67
2022/08/23 14:17:04;;;;;;;16.60;7.80;;;;;;;;;;1745576;82;21070;-67
2022/08/23 14:19:31;;;;;;;9.10;7.00;;;;;;;;;;1727996;81;21171;-67
2022/08/23 14:21:58;;;;;;;14.38;8.48;;;;;;;;;;1746909;81;21065;-67
2022/08/23 14:24:26;;;;;;;14.40;8.53;;;;;;;;;;1744877;81;21042;-67
2022/08/23 14:26:54;;;;;;;18.05;10.08;;;;;;;;;;1731582;82;21055;-67
2022/08/23 14:29:23;;;;;;;18.07;9.83;;;;;;;;;;1766757;80;21046;-67
2022/08/23 14:31:51;;;;;;;14.25;9.95;;;;;;;;;;1762718;80;21034;-67
2022/08/23 14:34:19;;;;;;;19.75;11.03;;;;;;;;;;1767636;81;21077;-67
2022/08/23 14:36:47;;;;;;;19.67;11.22;;;;;;;;;;1763954;80;21042;-67
2022/08/23 14:39:13;;;;;;;15.13;11.53;;;;;;;;;;1754465;80;21026;-67
2022/08/23 14:41:40;;;;;;;15.35;10.65;;;;;;;;;;1776299;80;21010;-67
2022/08/23 14:44:07;;;;;;;20.85;11.97;;;;;;;;;;1771078;80;21010;-67
2022/08/23 14:46:34;;;;;;;15.03;11.25;;;;;;;;;;1785122;80;21021;-67
2022/08/23 14:49:01;;;;;;;19.60;11.68;;;;;;;;;;1773196;80;21038;-67
2022/08/23 14:51:34;;;;;;;18.65;11.97;;;;;;;;;;1775521;80;21095;-67
2022/08/23 14:54:03;;;;;;;16.65;11.38;;;;;;;;;;1764133;80;21081;-67
2022/08/23 14:56:30;;;;;;;17.73;12.30;;;;;;;;;;1767376;80;21072;-67
2022/08/23 14:58:57;;;;;;;17.45;12.13;;;;;;;;;;1776261;80;21101;-67
2022/08/23 15:01:24;;;;;;;17.67;11.60;;;;;;;;;;1748233;81;21013;-67
2022/08/23 15:03:51;;;;;;;18.15;12.68;;;;;;;;;;1773849;79;21092;-67
2022/08/23 15:06:20;;;;;;;15.50;12.20;;;;;;;;;;1768492;80;21018;-67
2022/08/23 15:08:47;;;;;;;19.57;11.97;;;;;;;;;;1772485;80;21521;-67
2022/08/23 15:11:14;;;;;;;18.65;12.03;;;;;;;;;;1755132;80;21038;-67
2022/08/23 15:13:42;;;;;;;18.05;12.10;;;;;;;;;;1768939;80;21522;-67
2022/08/23 15:16:10;;;;;;;17.77;12.68;;;;;;;;;;1770097;80;21009;-67
2022/08/23 15:18:38;;;;;;;17.07;12.70;;;;;;;;;;1763135;80;20982;-68